Time;durP1;ratioP1;P1;durP2;ratioP2;P2;SDS_P1;SDS_P2;PMS_P1;PMS_P2;Temp;Humidity;BMP_temperature;BMP_pressure;BME280_temperature;BME280_humidity;BME280_pressure;Samples;Min_cycle;Max_cycle;Signal;HPM_P1;HPM_P2
2021/12/22 00:02:19;;;;;;;;;;;;;;;0.53;68.01;100837.44;5050589;28;19929;-60
2021/12/22 00:04:47;;;;;;;;;;;;;;;0.51;68.65;100831.38;5050861;28;19943;-59
2021/12/22 00:07:14;;;;;;;;;;;;;;;0.48;68.61;100833.97;5050549;28;19929;-60
2021/12/22 00:09:42;;;;;;;;;;;;;;;0.45;68.90;100831.38;5049093;28;20030;-60
2021/12/22 00:12:09;;;;;;;;;;;;;;;0.44;68.58;100833.09;5050504;28;19921;-60
2021/12/22 00:14:36;;;;;;;;;;;;;;;0.42;68.49;100829.66;5049300;28;20365;-59
2021/12/22 00:17:02;;;;;;;;;;;;;;;0.39;68.35;100827.03;5050497;28;19921;-59
2021/12/22 00:19:29;;;;;;;;;;;;;;;0.35;68.29;100822.72;5050280;28;19932;-60
2021/12/22 00:21:55;;;;;;;;;;;;;;;0.31;68.28;100818.38;5050555;28;19943;-59
2021/12/22 00:24:22;;;;;;;;;;;;;;;0.27;68.39;100816.66;5050443;28;20284;-59
2021/12/22 00:26:49;;;;;;;;;;;;;;;0.23;67.97;100816.63;5050354;28;19932;-59
2021/12/22 00:29:17;;;;;;;;;;;;;;;0.18;68.01;100814.91;5050172;28;20377;-59
2021/12/22 00:31:56;;;;;;;;;;;;;;;0.11;68.00;100816.63;5048893;28;19921;-59
2021/12/22 00:34:26;;;;;;;;;;;;;;;0.05;67.70;100824.34;5050383;28;19931;-62
2021/12/22 00:36:52;;;;;;;;;;;;;;;-0.01;67.28;100828.66;5050571;28;19924;-59
2021/12/22 00:39:19;;;;;;;;;;;;;;;-0.07;67.58;100820.84;5050327;28;20438;-59
2021/12/22 00:41:45;;;;;;;;;;;;;;;-0.12;68.02;100832.06;5050776;28;19944;-61
2021/12/22 00:44:13;;;;;;;;;;;;;;;-0.16;68.37;100828.56;5054043;28;19978;-59
2021/12/22 00:46:39;;;;;;;;;;;;;;;-0.19;68.54;100826.81;5053968;28;19921;-61
2021/12/22 00:49:08;;;;;;;;;;;;;;;-0.20;68.67;100830.28;5053802;28;20008;-60
2021/12/22 00:51:34;;;;;;;;;;;;;;;-0.20;68.64;100832.88;5053804;28;19929;-59
2021/12/22 00:54:01;;;;;;;;;;;;;;;-0.21;69.09;100828.56;5053895;28;20327;-59
2021/12/22 00:56:28;;;;;;;;;;;;;;;-0.20;69.03;100822.53;5053854;28;20293;-62
2021/12/22 00:58:54;;;;;;;;;;;;;;;-0.21;69.02;100831.16;5053665;28;19929;-60
2021/12/22 01:01:21;;;;;;;;;;;;;;;-0.19;68.94;100824.25;5053633;28;19920;-59
2021/12/22 01:03:47;;;;;;;;;;;;;;;-0.18;69.41;100828.56;5053777;28;19924;-60
2021/12/22 01:06:14;;;;;;;;;;;;;;;-0.17;68.72;100824.25;5053596;28;19920;-61
2021/12/22 01:08:40;;;;;;;;;;;;;;;-0.17;69.11;100822.53;5053437;28;20384;-59
2021/12/22 01:11:08;;;;;;;;;;;;;;;-0.16;69.05;100828.56;5053059;28;20262;-59
2021/12/22 01:13:34;;;;;;;;;;;;;;;-0.17;69.54;100822.53;5053534;28;19921;-61
2021/12/22 01:16:01;;;;;;;;;;;;;;;-0.17;69.43;100819.94;5053402;28;19921;-59
2021/12/22 01:18:32;;;;;;;;;;;;;;;-0.14;69.91;100825.13;5053365;28;20384;-59
2021/12/22 01:23:26;;;;;;;;;;;;;;;-0.09;69.88;100825.16;5053241;28;19966;-62
2021/12/22 01:25:53;;;;;;;;;;;;;;;-0.07;69.60;100828.59;5053535;28;19974;-60
2021/12/22 01:28:23;;;;;;;;;;;;;;;-0.06;69.71;100834.66;5053407;28;19929;-59
2021/12/22 01:30:50;;;;;;;;;;;;;;;-0.05;69.81;100831.19;5053048;28;19958;-59
2021/12/22 01:33:19;;;;;;;;;;;;;;;-0.06;69.39;100851.06;5053423;28;20294;-60
2021/12/22 01:35:46;;;;;;;;;;;;;;;-0.08;67.81;100847.59;5052033;28;19920;-59
2021/12/22 01:38:13;;;;;;;;;;;;;;;-0.15;66.62;100844.09;5052938;28;19920;-59
2021/12/22 01:40:41;;;;;;;;;;;;;;;-0.23;66.41;100844.94;5052720;28;19975;-60
2021/12/22 01:43:08;;;;;;;;;;;;;;;-0.35;66.88;100841.41;5053379;28;20542;-59
2021/12/22 01:49:09;;;;;;;;;;;;;;;-0.46;66.25;100843.94;5052554;28;19924;-60
2021/12/22 01:51:38;;;;;;;;;;;;;;;-0.72;65.89;100848.91;5052344;28;19925;-61
2021/12/22 01:54:11;;;;;;;;;;;;;;;-0.83;65.88;100838.50;5052489;28;19925;-61
2021/12/22 01:56:37;;;;;;;;;;;;;;;-0.92;66.43;100839.31;5051513;28;19929;-60
2021/12/22 01:59:06;;;;;;;;;;;;;;;-0.99;67.31;100832.34;5052463;28;20373;-59
2021/12/22 02:01:33;;;;;;;;;;;;;;;-1.04;67.56;100827.16;5052388;28;20058;-60
2021/12/22 02:04:00;;;;;;;;;;;;;;;-1.06;68.00;100834.00;5052680;28;19925;-60
2021/12/22 02:06:28;;;;;;;;;;;;;;;-1.05;68.64;100833.16;5051052;28;20464;-59
2021/12/22 02:08:55;;;;;;;;;;;;;;;-1.05;68.92;100827.97;5052318;28;19975;-59
2021/12/22 02:11:22;;;;;;;;;;;;;;;-1.02;68.98;100833.19;5052027;28;20265;-59
2021/12/22 02:13:55;;;;;;;;;;;;;;;-1.00;69.13;100828.91;5052390;28;19924;-59
2021/12/22 02:16:27;;;;;;;;;;;;;;;-0.97;69.06;100833.25;5051003;28;20372;-60
2021/12/22 02:18:54;;;;;;;;;;;;;;;-0.96;69.25;100829.78;5050825;28;19944;-61
2021/12/22 02:21:23;;;;;;;;;;;;;;;-0.95;69.34;100831.53;5051859;28;19921;-59
2021/12/22 02:23:49;;;;;;;;;;;;;;;-0.93;69.10;100832.41;5052270;28;19932;-60
2021/12/22 02:26:24;;;;;;;;;;;;;;;-0.93;68.71;100829.84;5052526;28;19974;-60
2021/12/22 02:28:58;;;;;;;;;;;;;;;-0.96;68.68;100817.75;5050835;28;19920;-60
2021/12/22 02:31:25;;;;;;;;;;;;;;;-0.97;68.77;100823.75;5051812;28;19921;-59
2021/12/22 02:33:52;;;;;;;;;;;;;;;-0.97;68.96;100818.56;5050459;28;20289;-61
2021/12/22 02:38:46;;;;;;;;;;;;;;;-0.98;69.18;100816.84;5051700;28;19935;-59
2021/12/22 02:41:15;;;;;;;;;;;;;;;-0.98;69.42;100814.28;5050375;28;19928;-60
2021/12/22 02:43:47;;;;;;;;;;;;;;;-0.95;69.59;100827.22;5051954;28;19928;-59
2021/12/22 02:46:15;;;;;;;;;;;;;;;-0.92;69.74;100827.25;5051723;28;20288;-61
2021/12/22 02:48:43;;;;;;;;;;;;;;;-0.89;69.86;100823.84;5050285;28;19951;-60
2021/12/22 02:51:10;;;;;;;;;;;;;;;-0.85;69.45;100828.16;5051498;28;19925;-60
2021/12/22 02:53:47;;;;;;;;;;;;;;;-0.84;69.59;100823.84;5051896;28;19932;-61
2021/12/22 02:59:02;;;;;;;;;;;;;;;-0.82;69.71;100817.00;5051313;28;20491;-59
2021/12/22 03:04:08;;;;;;;;;;;;;;;-0.80;69.54;100825.59;5051227;28;19925;-59
2021/12/22 03:06:43;;;;;;;;;;;;;;;-0.81;69.94;100817.00;5049892;28;20369;-61
2021/12/22 03:09:17;;;;;;;;;;;;;;;-0.79;69.65;100819.56;5051157;28;19925;-60
2021/12/22 03:11:44;;;;;;;;;;;;;;;-0.78;69.78;100816.16;5051044;28;19966;-59
2021/12/22 03:14:11;;;;;;;;;;;;;;;-0.77;69.92;100817.88;5051071;28;19928;-59
2021/12/22 03:16:37;;;;;;;;;;;;;;;-0.73;70.00;100819.63;5051131;28;20321;-59
2021/12/22 03:19:04;;;;;;;;;;;;;;;-0.71;69.91;100820.50;5051101;28;19927;-60
2021/12/22 03:21:31;;;;;;;;;;;;;;;-0.68;69.68;100820.53;5050805;28;19929;-60
2021/12/22 03:23:57;;;;;;;;;;;;;;;-0.65;70.14;100824.84;5049703;28;19932;-59
2021/12/22 03:26:25;;;;;;;;;;;;;;;-0.61;70.27;100826.59;5050670;28;19928;-58
2021/12/22 03:28:51;;;;;;;;;;;;;;;-0.56;70.63;100830.06;5049504;28;19924;-61
2021/12/22 03:31:18;;;;;;;;;;;;;;;-0.51;70.45;100824.94;5050546;28;19925;-58
2021/12/22 03:33:45;;;;;;;;;;;;;;;-0.44;70.43;100834.44;5050811;28;20455;-60
2021/12/22 03:36:11;;;;;;;;;;;;;;;-0.40;70.53;100825.00;5050788;28;19931;-62
2021/12/22 03:38:38;;;;;;;;;;;;;;;-0.37;70.25;100826.75;5050745;28;19925;-61
2021/12/22 03:41:06;;;;;;;;;;;;;;;-0.36;70.03;100834.50;5050392;28;19921;-59
2021/12/22 03:43:33;;;;;;;;;;;;;;;-0.37;69.94;100830.22;5050609;28;20334;-60
2021/12/22 03:45:59;;;;;;;;;;;;;;;-0.38;69.69;100822.44;5050649;28;19928;-59
2021/12/22 03:48:26;;;;;;;;;;;;;;;-0.41;69.78;100818.13;5050854;28;19925;-59
2021/12/22 03:50:53;;;;;;;;;;;;;;;-0.40;70.04;100819.84;5050238;28;20348;-59
2021/12/22 03:53:20;;;;;;;;;;;;;;;-0.41;70.09;100818.13;5050646;28;20385;-59
2021/12/22 03:55:46;;;;;;;;;;;;;;;-0.41;69.87;100813.78;5050594;28;19928;-59
2021/12/22 03:58:13;;;;;;;;;;;;;;;-0.43;69.74;100814.63;5050708;28;19920;-59
2021/12/22 04:00:40;;;;;;;;;;;;;;;-0.44;69.89;100813.75;5050546;28;19949;-62
2021/12/22 04:03:15;;;;;;;;;;;;;;;-0.46;69.76;100806.84;5050464;28;20448;-59
2021/12/22 04:05:42;;;;;;;;;;;;;;;-0.47;69.75;100815.47;5049186;28;19925;-59
2021/12/22 04:08:10;;;;;;;;;;;;;;;-0.51;69.68;100819.78;5050393;28;19921;-60
2021/12/22 04:10:37;;;;;;;;;;;;;;;-0.53;69.66;100819.75;5050369;28;19920;-59
2021/12/22 04:13:04;;;;;;;;;;;;;;;-0.53;69.82;100816.28;5050716;28;19925;-60
2021/12/22 04:15:31;;;;;;;;;;;;;;;-0.55;69.91;100816.28;5050440;28;19929;-59
2021/12/22 04:17:58;;;;;;;;;;;;;;;-0.55;69.68;100818.88;5053186;28;19928;-59
2021/12/22 04:20:24;;;;;;;;;;;;;;;-0.56;69.58;100821.47;5054535;28;19928;-60
2021/12/22 04:22:51;;;;;;;;;;;;;;;-0.57;69.57;100827.47;5054167;28;19935;-60
2021/12/22 04:25:20;;;;;;;;;;;;;;;-0.60;69.55;100827.47;5053273;28;20388;-58
2021/12/22 04:27:49;;;;;;;;;;;;;;;-0.62;69.02;100829.16;5054235;28;19929;-59
2021/12/22 04:30:15;;;;;;;;;;;;;;;-0.66;69.17;100818.78;5053847;28;19921;-59
2021/12/22 04:32:42;;;;;;;;;;;;;;;-0.68;69.42;100819.66;5053989;28;19924;-59
2021/12/22 04:35:08;;;;;;;;;;;;;;;-0.70;69.59;100814.50;5052743;28;19927;-61
2021/12/22 04:37:35;;;;;;;;;;;;;;;-0.69;69.78;100812.75;5053901;28;19925;-61
2021/12/22 04:40:02;;;;;;;;;;;;;;;-0.67;69.82;100809.31;5053999;28;19947;-61
2021/12/22 04:42:28;;;;;;;;;;;;;;;-0.64;70.35;100811.06;5052771;28;19921;-61
2021/12/22 04:44:57;;;;;;;;;;;;;;;-0.61;70.16;100807.63;5053924;28;19924;-60
2021/12/22 04:47:23;;;;;;;;;;;;;;;-0.57;70.46;100804.19;5053892;28;19920;-59
2021/12/22 04:49:50;;;;;;;;;;;;;;;-0.54;70.22;100815.44;5053649;28;19931;-60
2021/12/22 04:52:20;;;;;;;;;;;;;;;-0.51;70.01;100817.19;5053956;28;19928;-60
2021/12/22 04:54:52;;;;;;;;;;;;;;;-0.49;70.20;100812.88;5052636;28;19924;-59
2021/12/22 04:57:19;;;;;;;;;;;;;;;-0.48;69.72;100801.69;5053567;28;20320;-61
2021/12/22 04:59:45;;;;;;;;;;;;;;;-0.47;69.79;100805.13;5053367;28;20438;-61
2021/12/22 05:02:12;;;;;;;;;;;;;;;-0.48;69.86;100806.88;5053467;28;19921;-59
2021/12/22 05:04:38;;;;;;;;;;;;;;;-0.48;69.80;100808.56;5053840;28;19921;-59
2021/12/22 05:07:05;;;;;;;;;;;;;;;-0.50;69.75;100800.81;5053701;28;20351;-59
2021/12/22 05:09:31;;;;;;;;;;;;;;;-0.50;69.85;100799.94;5053219;28;19925;-61
2021/12/22 05:11:58;;;;;;;;;;;;;;;-0.52;69.65;100799.94;5053199;28;19979;-59
2021/12/22 05:14:25;;;;;;;;;;;;;;;-0.53;69.24;100805.94;5053398;28;19927;-59
2021/12/22 05:16:53;;;;;;;;;;;;;;;-0.54;69.19;100796.47;5053316;28;19936;-61
2021/12/22 05:19:20;;;;;;;;;;;;;;;-0.58;69.14;100795.59;5053101;28;19924;-59
2021/12/22 05:21:46;;;;;;;;;;;;;;;-0.61;68.74;100798.16;5053429;28;20400;-59
2021/12/22 05:24:12;;;;;;;;;;;;;;;-0.63;69.43;100807.63;5053309;28;19947;-59
2021/12/22 05:26:39;;;;;;;;;;;;;;;-0.64;69.60;100795.53;5053163;28;20430;-60
2021/12/22 05:29:05;;;;;;;;;;;;;;;-0.66;69.83;100795.53;5052419;28;19928;-61
2021/12/22 05:31:32;;;;;;;;;;;;;;;-0.64;69.39;100789.53;5052879;28;19998;-60
2021/12/22 05:33:58;;;;;;;;;;;;;;;-0.64;68.99;100792.94;5053168;28;19921;-60
2021/12/22 05:36:25;;;;;;;;;;;;;;;-0.66;69.45;100795.53;5051820;28;19994;-60
2021/12/22 05:38:51;;;;;;;;;;;;;;;-0.66;69.18;100799.84;5051841;28;19924;-60
2021/12/22 05:41:18;;;;;;;;;;;;;;;-0.67;69.59;100801.56;5052684;28;19928;-62
2021/12/22 05:43:45;;;;;;;;;;;;;;;-0.68;69.38;100794.66;5052775;28;19927;-60
2021/12/22 05:46:11;;;;;;;;;;;;;;;-0.69;69.29;100792.94;5052744;28;19932;-60
2021/12/22 05:48:38;;;;;;;;;;;;;;;-0.67;69.56;100780.03;5052815;28;20590;-59
2021/12/22 05:51:05;;;;;;;;;;;;;;;-0.66;69.64;100782.59;5052436;28;19921;-60
2021/12/22 05:53:31;;;;;;;;;;;;;;;-0.62;69.67;100790.38;5052788;28;19982;-59
2021/12/22 05:55:58;;;;;;;;;;;;;;;-0.60;69.71;100783.50;5052628;28;19920;-58
2021/12/22 05:58:25;;;;;;;;;;;;;;;-0.56;69.66;100790.44;5052370;28;19966;-60
2021/12/22 06:00:51;;;;;;;;;;;;;;;-0.54;69.64;100791.28;5052523;28;19935;-59
2021/12/22 06:03:18;;;;;;;;;;;;;;;-0.54;69.56;100788.72;5052539;28;20016;-59
2021/12/22 06:05:45;;;;;;;;;;;;;;;-0.53;69.67;100785.25;5052549;28;19951;-61
2021/12/22 06:08:11;;;;;;;;;;;;;;;-0.53;69.53;100783.53;5052294;28;19928;-59
2021/12/22 06:10:38;;;;;;;;;;;;;;;-0.53;69.44;100780.97;5051949;28;19943;-59
2021/12/22 06:13:05;;;;;;;;;;;;;;;-0.53;68.91;100783.53;5050840;28;20026;-59
2021/12/22 06:15:32;;;;;;;;;;;;;;;-0.51;68.76;100778.38;5052323;28;19924;-60
2021/12/22 06:18:00;;;;;;;;;;;;;;;-0.50;69.54;100767.19;5052440;28;19921;-59
2021/12/22 06:20:27;;;;;;;;;;;;;;;-0.48;69.38;100769.78;5051928;28;19925;-59
2021/12/22 06:22:53;;;;;;;;;;;;;;;-0.47;69.22;100774.97;5050916;28;19925;-61
2021/12/22 06:25:20;;;;;;;;;;;;;;;-0.46;69.31;100779.28;5052229;28;19928;-59
2021/12/22 06:27:47;;;;;;;;;;;;;;;-0.46;69.17;100768.03;5051910;28;19943;-61
2021/12/22 06:30:14;;;;;;;;;;;;;;;-0.47;69.31;100772.38;5051977;28;19943;-59
2021/12/22 06:32:41;;;;;;;;;;;;;;;-0.48;68.77;100773.25;5051886;28;19931;-60
2021/12/22 06:35:07;;;;;;;;;;;;;;;-0.51;68.13;100768.03;5050793;28;19928;-61
2021/12/22 06:37:34;;;;;;;;;;;;;;;-0.53;68.39;100778.38;5051815;28;19920;-60
2021/12/22 06:40:00;;;;;;;;;;;;;;;-0.57;68.63;100781.81;5050485;28;19921;-60
2021/12/22 06:42:27;;;;;;;;;;;;;;;-0.61;67.50;100779.16;5051497;28;19978;-60
2021/12/22 06:44:53;;;;;;;;;;;;;;;-0.67;67.20;100780.88;5051998;28;19978;-63
2021/12/22 06:47:20;;;;;;;;;;;;;;;-0.72;67.55;100779.97;5051662;28;19921;-60
2021/12/22 06:49:46;;;;;;;;;;;;;;;-0.77;67.44;100783.38;5051396;28;20448;-59
2021/12/22 06:52:13;;;;;;;;;;;;;;;-0.84;67.43;100777.31;5051503;28;19927;-60
2021/12/22 06:54:39;;;;;;;;;;;;;;;-0.89;67.88;100784.19;5051575;28;20336;-59
2021/12/22 06:57:05;;;;;;;;;;;;;;;-0.94;68.08;100782.44;5051320;28;19956;-62
2021/12/22 06:59:32;;;;;;;;;;;;;;;-0.97;68.18;100776.38;5051254;28;19994;-61
2021/12/22 07:01:59;;;;;;;;;;;;;;;-1.00;68.48;100773.75;5051331;28;19931;-60
2021/12/22 07:04:26;;;;;;;;;;;;;;;-1.01;68.78;100780.66;5051314;28;20348;-62
2021/12/22 07:06:52;;;;;;;;;;;;;;;-1.02;68.96;100781.50;5051418;28;20602;-60
2021/12/22 07:09:19;;;;;;;;;;;;;;;-1.02;69.27;100778.91;5049945;28;19921;-60
2021/12/22 07:11:45;;;;;;;;;;;;;;;-0.99;69.63;100781.53;5050808;28;20380;-60
2021/12/22 07:14:13;;;;;;;;;;;;;;;-0.97;69.64;100777.22;5051595;28;19925;-59
2021/12/22 07:16:39;;;;;;;;;;;;;;;-0.93;69.82;100772.97;5051451;28;20276;-59
2021/12/22 07:19:06;;;;;;;;;;;;;;;-0.90;69.81;100774.69;5051278;28;20297;-62
2021/12/22 07:21:32;;;;;;;;;;;;;;;-0.88;70.02;100772.97;5050769;28;19974;-60
2021/12/22 07:23:59;;;;;;;;;;;;;;;-0.83;70.19;100773.88;5051058;28;19924;-60
2021/12/22 07:26:26;;;;;;;;;;;;;;;-0.77;70.38;100784.25;5051110;28;19974;-60
2021/12/22 07:28:53;;;;;;;;;;;;;;;-0.71;70.41;100779.13;5051339;28;19920;-60
2021/12/22 07:31:19;;;;;;;;;;;;;;;-0.64;70.69;100776.59;5050758;28;20391;-60
2021/12/22 07:33:56;;;;;;;;;;;;;;;-0.58;70.99;100785.25;5050986;28;19928;-60
2021/12/22 07:36:22;;;;;;;;;;;;;;;-0.50;70.70;100789.56;5050857;28;19966;-60
2021/12/22 07:38:56;;;;;;;;;;;;;;;-0.45;70.76;100788.75;5050879;28;19931;-61
2021/12/22 07:41:22;;;;;;;;;;;;;;;-0.39;70.68;100787.91;5050606;28;19921;-61
2021/12/22 07:43:49;;;;;;;;;;;;;;;-0.33;70.56;100790.53;5050949;28;19920;-60
2021/12/22 07:46:15;;;;;;;;;;;;;;;-0.29;70.95;100786.25;5050646;28;19978;-59
2021/12/22 07:48:42;;;;;;;;;;;;;;;-0.26;70.20;100781.09;5050763;28;19929;-59
2021/12/22 07:51:09;;;;;;;;;;;;;;;-0.23;70.48;100786.25;5050440;28;19921;-60
2021/12/22 07:53:35;;;;;;;;;;;;;;;-0.21;69.95;100776.81;5051123;28;19924;-62
2021/12/22 07:56:02;;;;;;;;;;;;;;;-0.20;70.15;100783.69;5050592;28;19924;-61
2021/12/22 07:58:28;;;;;;;;;;;;;;;-0.21;69.81;100773.34;5050607;28;20281;-59
2021/12/22 08:00:56;;;;;;;;;;;;;;;-0.22;69.63;100769.03;5050456;28;19928;-61
2021/12/22 08:03:23;;;;;;;;;;;;;;;-0.24;69.46;100763.84;5050538;28;20404;-60
2021/12/22 08:06:10;;;;;;;;;;;;;;;-0.26;69.53;100763.00;5050479;28;19960;-59
2021/12/22 08:08:36;;;;;;;;;;;;;;;-0.25;69.94;100767.28;5049890;28;19925;-61
2021/12/22 08:11:03;;;;;;;;;;;;;;;-0.23;70.10;100764.72;5048628;28;19924;-60
2021/12/22 08:13:29;;;;;;;;;;;;;;;-0.20;70.34;100762.13;5048828;28;19936;-61
2021/12/22 08:15:56;;;;;;;;;;;;;;;-0.17;70.59;100768.19;5048964;28;20383;-58
2021/12/22 08:18:24;;;;;;;;;;;;;;;-0.13;70.46;100771.66;5048749;28;19925;-59
2021/12/22 08:20:51;;;;;;;;;;;;;;;-0.09;70.77;100768.22;5048841;28;19928;-60
2021/12/22 08:23:18;;;;;;;;;;;;;;;-0.05;70.59;100771.66;5049620;28;20401;-60
2021/12/22 08:25:46;;;;;;;;;;;;;;;0.00;70.72;100772.56;5049313;28;19947;-59
2021/12/22 08:28:12;;;;;;;;;;;;;;;0.03;70.57;100767.38;5050488;28;20262;-59
2021/12/22 08:30:39;;;;;;;;;;;;;;;0.06;70.69;100771.69;5050097;28;19982;-60
2021/12/22 08:33:09;;;;;;;;;;;;;;;0.08;70.18;100765.66;5050595;28;20531;-60
2021/12/22 08:38:50;;;;;;;;;;;;;;;0.12;70.27;100763.97;5050713;28;19920;-62
2021/12/22 08:41:10;;;;;;;;;;;;;;;0.18;70.52;100763.13;5049766;28;19920;-59
2021/12/22 08:43:36;;;;;;;;;;;;;;;0.21;70.63;100756.22;5049141;28;19921;-60
2021/12/22 08:46:03;;;;;;;;;;;;;;;0.24;70.59;100761.41;5050434;28;19928;-59
2021/12/22 08:48:29;;;;;;;;;;;;;;;0.30;70.80;100757.94;5050308;28;19921;-59
2021/12/22 08:50:56;;;;;;;;;;;;;;;0.35;70.45;100757.97;5049849;28;19925;-59
2021/12/22 08:53:22;;;;;;;;;;;;;;;0.40;70.58;100756.25;5049881;28;19928;-61
2021/12/22 08:55:49;;;;;;;;;;;;;;;0.46;70.50;100761.44;5049964;28;19931;-63
2021/12/22 08:58:15;;;;;;;;;;;;;;;0.50;70.64;100760.59;5050218;28;19939;-59
2021/12/22 09:00:42;;;;;;;;;;;;;;;0.54;70.56;100753.66;5049806;28;19935;-59
2021/12/22 09:03:09;;;;;;;;;;;;;;;0.58;70.43;100760.59;5051241;28;19924;-60
2021/12/22 09:05:36;;;;;;;;;;;;;;;0.63;70.80;100755.38;5053565;28;20015;-59
2021/12/22 09:08:02;;;;;;;;;;;;;;;0.68;70.68;100756.28;5053422;28;20365;-58
2021/12/22 09:10:29;;;;;;;;;;;;;;;0.73;70.84;100751.06;5053097;28;19920;-61
2021/12/22 09:12:55;;;;;;;;;;;;;;;0.80;70.65;100757.13;5053567;28;19924;-61
2021/12/22 09:15:22;;;;;;;;;;;;;;;0.86;70.99;100759.72;5053677;28;19925;-59
2021/12/22 09:17:48;;;;;;;;;;;;;;;0.90;70.70;100754.53;5053533;28;19925;-59
2021/12/22 09:20:15;;;;;;;;;;;;;;;0.98;71.48;100756.25;5053071;28;20269;-60
2021/12/22 09:22:41;;;;;;;;;;;;;;;1.06;71.29;100759.69;5053042;28;19940;-60
2021/12/22 09:25:08;;;;;;;;;;;;;;;1.12;71.20;100756.25;5053373;28;20418;-59
2021/12/22 09:27:35;;;;;;;;;;;;;;;1.18;70.95;100751.03;5053207;28;20055;-59
2021/12/22 09:30:03;;;;;;;;;;;;;;;1.26;71.67;100753.59;5052972;28;20308;-60
2021/12/22 09:32:29;;;;;;;;;;;;;;;1.32;71.44;100753.59;5051728;28;20296;-60
2021/12/22 09:34:56;;;;;;;;;;;;;;;1.38;71.02;100753.56;5051709;28;20292;-60
2021/12/22 09:37:22;;;;;;;;;;;;;;;1.46;71.13;100750.94;5052794;28;19924;-60
2021/12/22 09:39:49;;;;;;;;;;;;;;;1.53;71.15;100751.81;5053001;28;20296;-58
2021/12/22 09:42:16;;;;;;;;;;;;;;;1.60;71.19;100755.25;5053167;28;19960;-60
2021/12/22 09:44:44;;;;;;;;;;;;;;;1.69;71.34;100757.81;5053118;28;19966;-60
2021/12/22 09:47:23;;;;;;;;;;;;;;;1.77;70.90;100749.97;5052988;28;19924;-59
2021/12/22 09:50:06;;;;;;;;;;;;;;;1.85;71.09;100755.13;5052755;28;19979;-59
2021/12/22 09:52:34;;;;;;;;;;;;;;;1.90;71.42;100751.66;5052911;28;20357;-59
2021/12/22 09:55:01;;;;;;;;;;;;;;;1.96;71.36;100755.94;5052961;28;19928;-60
2021/12/22 09:57:29;;;;;;;;;;;;;;;2.00;71.06;100754.19;5052658;28;19924;-60
2021/12/22 09:59:56;;;;;;;;;;;;;;;2.04;70.94;100754.19;5052429;28;19920;-59
2021/12/22 10:02:27;;;;;;;;;;;;;;;2.08;71.10;100757.63;5052654;28;19924;-60
2021/12/22 10:04:53;;;;;;;;;;;;;;;2.11;71.39;100752.41;5052832;28;19928;-58
2021/12/22 10:07:24;;;;;;;;;;;;;;;2.15;71.24;100759.31;5051543;28;19924;-61
2021/12/22 10:09:51;;;;;;;;;;;;;;;2.18;70.83;100759.31;5052219;28;19925;-60
2021/12/22 10:12:19;;;;;;;;;;;;;;;2.21;69.57;100763.63;5052322;28;20408;-62
2021/12/22 10:14:53;;;;;;;;;;;;;;;2.20;68.03;100772.25;5052316;28;19928;-60
2021/12/22 10:17:51;;;;;;;;;;;;;;;2.17;67.94;100774.91;5051437;28;19921;-59
2021/12/22 10:20:20;;;;;;;;;;;;;;;2.13;67.24;100768.84;5047574;28;20381;-59
2021/12/22 10:22:48;;;;;;;;;;;;;;;2.06;66.31;100772.34;5050914;28;19944;-58
2021/12/22 10:25:17;;;;;;;;;;;;;;;2.03;67.24;100757.66;5050820;28;19921;-60
2021/12/22 10:27:45;;;;;;;;;;;;;;;2.00;67.28;100759.38;5052565;28;19993;-59
2021/12/22 10:30:20;;;;;;;;;;;;;;;1.98;68.10;100741.22;5051712;28;19928;-60
2021/12/22 10:32:47;;;;;;;;;;;;;;;1.97;67.76;100746.44;5052004;28;20026;-59
2021/12/22 10:35:13;;;;;;;;;;;;;;;1.98;69.17;100743.81;5051974;28;19921;-59
2021/12/22 10:37:41;;;;;;;;;;;;;;;2.03;69.48;100743.78;5051797;28;20400;-59
2021/12/22 10:40:22;;;;;;;;;;;;;;;2.09;70.10;100738.56;5050333;28;19924;-59
2021/12/22 10:42:49;;;;;;;;;;;;;;;2.15;69.18;100743.72;5051991;28;19947;-59
2021/12/22 10:45:16;;;;;;;;;;;;;;;2.20;69.85;100728.97;5051830;28;19931;-59
2021/12/22 10:50:36;;;;;;;;;;;;;;;2.33;68.00;100728.91;5051623;28;20377;-59
2021/12/22 10:53:03;;;;;;;;;;;;;;;2.37;69.01;100730.59;5051678;28;19971;-61
2021/12/22 10:55:37;;;;;;;;;;;;;;;2.40;69.31;100722.78;5051873;28;19925;-60
2021/12/22 10:58:13;;;;;;;;;;;;;;;2.44;68.53;100716.66;5051602;28;19924;-59
2021/12/22 11:00:40;;;;;;;;;;;;;;;2.48;68.87;100713.16;5051119;28;19921;-59
2021/12/22 11:03:07;;;;;;;;;;;;;;;2.54;69.30;100708.81;5051721;28;19978;-60
2021/12/22 11:05:45;;;;;;;;;;;;;;;2.60;69.95;100711.34;5051518;28;20019;-58
2021/12/22 11:08:25;;;;;;;;;;;;;;;2.67;70.16;100715.63;5050190;28;19935;-60
2021/12/22 11:10:52;;;;;;;;;;;;;;;2.78;70.63;100714.66;5051136;28;19974;-60
2021/12/22 11:13:20;;;;;;;;;;;;;;;2.89;70.69;100707.63;5051294;28;19926;-60
2021/12/22 11:15:47;;;;;;;;;;;;;;;3.05;71.30;100712.66;5051444;28;19928;-59
2021/12/22 11:18:27;;;;;;;;;;;;;;;3.24;71.69;100701.19;5051456;28;19951;-61
2021/12/22 11:21:15;;;;;;;;;;;;;;;3.56;72.79;100704.31;5049703;28;19932;-58
2021/12/22 11:23:42;;;;;;;;;;;;;;;3.95;73.02;100695.09;5050995;28;19925;-62
2021/12/22 11:26:08;;;;;;;;;;;;;;;4.36;73.91;100692.75;5051214;28;19925;-60
2021/12/22 11:28:35;;;;;;;;;;;;;;;4.80;74.55;100698.97;5050998;28;20369;-59
2021/12/22 11:31:05;;;;;;;;;;;;;;;5.30;75.31;100692.81;5049554;28;19931;-60
2021/12/22 11:33:33;;;;;;;;;;;;;;;5.85;75.93;100689.94;5050761;28;19925;-61
2021/12/22 11:36:00;;;;;;;;;;;;;;;6.39;76.16;100680.00;5050999;28;20472;-59
2021/12/22 11:38:29;;;;;;;;;;;;;;;6.93;76.38;100678.66;5051060;28;20372;-59
2021/12/22 11:41:07;;;;;;;;;;;;;;;7.40;75.85;100686.13;5050742;28;19931;-60
2021/12/22 11:43:37;;;;;;;;;;;;;;;7.84;75.12;100680.44;5051015;28;19924;-60
2021/12/22 11:46:04;;;;;;;;;;;;;;;8.19;74.55;100688.13;5050797;28;19932;-60
2021/12/22 11:48:32;;;;;;;;;;;;;;;8.50;73.22;100678.38;5049533;28;20293;-59
2021/12/22 11:50:58;;;;;;;;;;;;;;;8.72;72.97;100670.69;5050625;28;19938;-72
2021/12/22 11:53:25;;;;;;;;;;;;;;;8.94;72.54;100673.38;5050717;28;19947;-60
2021/12/22 11:55:55;;;;;;;;;;;;;;;9.12;71.89;100665.75;5050751;28;19948;-59
2021/12/22 11:58:33;;;;;;;;;;;;;;;9.32;71.62;100662.44;5050730;28;19924;-59
2021/12/22 12:01:11;;;;;;;;;;;;;;;9.55;71.91;100658.06;5050345;28;19924;-60
2021/12/22 12:03:40;;;;;;;;;;;;;;;9.77;71.92;100651.97;5049609;28;19920;-59
2021/12/22 12:06:09;;;;;;;;;;;;;;;10.00;71.86;100658.09;5049147;28;19920;-60
2021/12/22 12:08:48;;;;;;;;;;;;;;;10.25;71.85;100659.72;5049435;28;19936;-59
2021/12/22 12:11:18;;;;;;;;;;;;;;;10.53;71.57;100648.94;5050219;28;19928;-62
2021/12/22 12:14:01;;;;;;;;;;;;;;;10.81;71.15;100646.91;5050588;28;19931;-60
2021/12/22 12:22:11;;;;;;;;;;;;;;;11.45;69.45;100644.91;5050477;28;19920;-59
2021/12/22 12:24:41;;;;;;;;;;;;;;;11.59;68.94;100636.34;5049176;28;20309;-59
2021/12/22 12:27:26;;;;;;;;;;;;;;;11.72;68.55;100641.03;5050706;28;19925;-59
2021/12/22 12:29:54;;;;;;;;;;;;;;;11.83;68.68;100632.63;5048885;28;19936;-61
2021/12/22 12:32:39;;;;;;;;;;;;;;;11.89;68.13;100632.31;5049309;28;19920;-59
2021/12/22 12:35:18;;;;;;;;;;;;;;;11.90;67.41;100627.91;5048929;28;19936;-60
2021/12/22 12:38:04;;;;;;;;;;;;;;;11.81;66.32;100624.78;5051406;28;19921;-60
2021/12/22 12:40:49;;;;;;;;;;;;;;;11.69;65.64;100628.00;5053883;28;19943;-61
2021/12/22 12:43:16;;;;;;;;;;;;;;;11.49;65.09;100619.25;5054311;28;19921;-59
2021/12/22 12:45:43;;;;;;;;;;;;;;;11.28;65.28;100610.56;5054060;28;19924;-59
2021/12/22 12:48:39;;;;;;;;;;;;;;;11.07;65.12;100606.22;5054067;28;19974;-60
2021/12/22 12:51:13;;;;;;;;;;;;;;;10.82;65.05;100595.94;5048667;28;20301;-59
2021/12/22 12:53:40;;;;;;;;;;;;;;;10.62;65.33;100596.81;5054124;28;20284;-60
2021/12/22 12:56:08;;;;;;;;;;;;;;;10.46;65.60;100596.63;5053910;28;20384;-59
2021/12/22 12:58:55;;;;;;;;;;;;;;;10.33;65.79;100602.38;5052666;28;20381;-61
2021/12/22 13:01:40;;;;;;;;;;;;;;;10.20;65.76;100596.75;5053593;28;19927;-60
2021/12/22 13:04:23;;;;;;;;;;;;;;;10.07;65.85;100591.16;5053803;28;19924;-60
2021/12/22 13:06:50;;;;;;;;;;;;;;;9.94;65.59;100582.91;5052870;28;19925;-59
2021/12/22 13:09:23;;;;;;;;;;;;;;;9.82;65.79;100588.66;5053571;28;19975;-60
2021/12/22 13:12:14;;;;;;;;;;;;;;;9.66;65.38;100584.03;5052360;28;19925;-62
2021/12/22 13:17:29;;;;;;;;;;;;;;;9.35;65.83;100587.88;5053703;28;19921;-59